Weather at Deer Lake Airport

Public forecast

Using degrees Celsius for public forecast. Weather courtesy of forecast.io.

Current aviation weather report (METAR) for Deer Lake Airport

Retrieved 2021/06/15 06:00 UTC (43 minutes ago):

CYDF 150600Z VRB02KT 15SM BKN091 07/06 A3017 RMK AC5 SLP219

Aviation forecast (TAF) for Deer Lake Airport

Retrieved 2021-06-15 02:42 UTC (4 hours ago):

TAF CYDF 150139Z 1502/1514 VRB03KT P6SM FEW050 BKN200 FM150800 VRB03KT P6SM BKN060 FM151300 18012KT P6SM BKN130 RMK NXT FCST BY 150800Z